Time;durP1;ratioP1;P1;durP2;ratioP2;P2;SDS_P1;SDS_P2;PMS_P1;PMS_P2;Temp;Humidity;BMP_temperature;BMP_pressure;BME280_temperature;BME280_humidity;BME280_pressure;Samples;Min_cycle;Max_cycle;Signal;HPM_P1;HPM_P2
2023/07/28 00:02:27;;;;;;;2.80;2.50;;;;;;;15.84;100.00;99752.72;7394663;19;20432;-69
2023/07/28 00:04:55;;;;;;;3.70;2.65;;;;;;;15.85;100.00;99749.16;7393193;19;20021;-68
2023/07/28 00:07:23;;;;;;;3.60;2.35;;;;;;;15.86;100.00;99740.25;7393478;19;20078;-66
2023/07/28 00:09:52;;;;;;;2.60;2.40;;;;;;;15.86;100.00;99740.25;7394621;19;20526;-67
2023/07/28 00:12:21;;;;;;;5.20;2.20;;;;;;;15.86;100.00;99740.25;7393916;19;20086;-67
2023/07/28 00:14:52;;;;;;;3.15;2.13;;;;;;;15.88;100.00;99741.84;7394382;19;20006;-66
2023/07/28 00:17:21;;;;;;;3.63;2.03;;;;;;;15.88;100.00;99738.38;7393603;19;20075;-68
2023/07/28 00:19:49;;;;;;;5.07;2.55;;;;;;;15.88;100.00;99735.72;7393321;19;20090;-76
2023/07/28 00:22:17;;;;;;;5.15;2.28;;;;;;;15.91;100.00;99730.25;7394747;19;20085;-67
2023/07/28 00:24:46;;;;;;;3.88;2.40;;;;;;;15.91;100.00;99736.41;7399272;19;20086;-67
2023/07/28 00:27:14;;;;;;;3.88;2.38;;;;;;;15.92;100.00;99734.59;7400402;19;20088;-68
2023/07/28 00:29:43;;;;;;;2.90;1.98;;;;;;;15.94;100.00;99735.38;7401612;19;20499;-70
2023/07/28 00:32:14;;;;;;;2.25;2.03;;;;;;;15.95;100.00;99735.25;7400935;19;20078;-69
2023/07/28 00:34:42;;;;;;;2.10;1.77;;;;;;;15.97;100.00;99743.09;7402388;19;20032;-68
2023/07/28 00:37:11;;;;;;;3.40;2.03;;;;;;;15.98;100.00;99738.69;7399946;19;20022;-69
2023/07/28 00:39:39;;;;;;;2.55;1.92;;;;;;;15.99;100.00;99735.09;7401274;19;20413;-68
2023/07/28 00:42:09;;;;;;;2.97;2.10;;;;;;;15.99;100.00;99730.66;7401622;19;20014;-67
2023/07/28 00:44:37;;;;;;;3.55;1.92;;;;;;;16.00;100.00;99727.06;7401104;19;20505;-67
2023/07/28 00:47:06;;;;;;;4.20;2.15;;;;;;;16.02;100.00;99729.59;7399671;19;20035;-67
2023/07/28 00:49:37;;;;;;;6.07;2.30;;;;;;;16.02;100.00;99729.59;7402496;19;20031;-68
2023/07/28 00:52:08;;;;;;;3.45;1.80;;;;;;;16.03;100.00;99724.22;7401952;19;20032;-69
2023/07/28 00:54:37;;;;;;;3.03;2.03;;;;;;;16.04;100.00;99731.22;7402747;19;20006;-69
2023/07/28 00:57:07;;;;;;;2.05;1.67;;;;;;;16.05;100.00;99732.91;7397897;19;20387;-68
2023/07/28 00:59:35;;;;;;;2.83;1.88;;;;;;;16.07;100.00;99736.31;7400709;19;20423;-68
2023/07/28 01:02:04;;;;;;;3.88;2.38;;;;;;;16.08;100.00;99722.13;7400543;19;20073;-68
2023/07/28 01:04:33;;;;;;;10.13;2.35;;;;;;;16.10;100.00;99716.78;7398368;19;20081;-67
2023/07/28 01:07:11;;;;;;;2.40;2.03;;;;;;;16.11;100.00;99718.44;7399232;19;20096;-68
2023/07/28 01:09:45;;;;;;;2.20;2.00;;;;;;;16.10;100.00;99720.25;7400709;19;20038;-68
2023/07/28 01:12:14;;;;;;;5.75;2.22;;;;;;;16.11;100.00;99718.44;7397767;19;20078;-66
2023/07/28 01:14:42;;;;;;;1.95;1.77;;;;;;;16.15;100.00;99719.13;7400874;19;20536;-65
2023/07/28 01:17:11;;;;;;;3.08;2.03;;;;;;;16.13;100.00;99722.69;7398768;19;20018;-66
2023/07/28 01:19:39;;;;;;;4.80;2.17;;;;;;;16.15;100.00;99719.13;7399037;19;20006;-66
2023/07/28 01:22:29;;;;;;;3.03;2.15;;;;;;;16.16;100.00;99718.19;7399865;19;20432;-65
2023/07/28 01:25:06;;;;;;;4.93;1.92;;;;;;;16.17;100.00;99725.19;7399885;19;20481;-65
2023/07/28 01:27:42;;;;;;;3.00;1.85;;;;;;;16.18;100.00;99716.31;7397707;19;20014;-64
2023/07/28 01:30:11;;;;;;;2.55;1.90;;;;;;;16.18;100.00;99711.84;7399747;19;20531;-64
2023/07/28 01:32:40;;;;;;;5.80;2.03;;;;;;;16.20;100.00;99711.75;7397419;19;20015;-65
2023/07/28 01:35:10;;;;;;;7.78;2.22;;;;;;;16.20;100.00;99712.63;7398524;19;20035;-65
2023/07/28 01:37:38;;;;;;;6.82;2.10;;;;;;;16.21;100.00;99710.81;7397326;19;20081;-66
2023/07/28 01:40:08;;;;;;;2.72;1.88;;;;;;;16.21;100.00;99710.81;7399286;19;20027;-66
2023/07/28 01:42:39;;;;;;;4.93;2.22;;;;;;;16.21;100.00;99709.00;7397219;19;20073;-66
2023/07/28 01:45:09;;;;;;;2.78;1.90;;;;;;;16.23;100.00;99701.81;7399230;19;20078;-65
2023/07/28 01:47:37;;;;;;;4.60;2.17;;;;;;;16.23;100.00;99712.41;7397419;19;20074;-66
2023/07/28 01:50:07;;;;;;;6.38;1.90;;;;;;;16.24;100.00;99708.81;7397159;19;20082;-65
2023/07/28 01:52:35;;;;;;;7.40;1.80;;;;;;;16.25;100.00;99709.66;7398580;19;20069;-65
2023/07/28 01:55:04;;;;;;;6.00;2.03;;;;;;;16.26;100.00;99709.59;7399113;19;20073;-65
2023/07/28 01:57:35;;;;;;;5.30;1.98;;;;;;;16.27;100.00;99700.69;7397254;19;20095;-64
2023/07/28 02:00:08;;;;;;;4.10;1.67;;;;;;;16.27;100.00;99703.31;7399503;19;20070;-65
2023/07/28 02:02:36;;;;;;;3.45;1.70;;;;;;;16.27;100.00;99698.03;7397241;19;20019;-66
2023/07/28 02:05:05;;;;;;;5.05;1.92;;;;;;;16.29;100.00;99704.09;7396695;19;20018;-65
2023/07/28 02:07:33;;;;;;;2.03;1.70;;;;;;;16.29;100.00;99700.59;7396568;19;20027;-65
2023/07/28 02:10:01;;;;;;;2.53;1.85;;;;;;;16.29;100.00;99709.38;7398726;19;20082;-65
2023/07/28 02:12:30;;;;;;;2.90;1.83;;;;;;;16.31;100.00;99705.81;7396303;19;20018;-65
2023/07/28 02:14:58;;;;;;;3.55;1.80;;;;;;;16.31;100.00;99708.44;7395903;19;20481;-65
2023/07/28 02:17:29;;;;;;;3.35;1.65;;;;;;;16.31;100.00;99704.00;7396813;19;20091;-66
2023/07/28 02:20:05;;;;;;;6.00;2.00;;;;;;;16.32;100.00;99705.69;7398144;19;20435;-66
2023/07/28 02:22:33;;;;;;;4.32;1.98;;;;;;;16.32;100.00;99695.09;7397972;19;20010;-65
2023/07/28 02:25:02;;;;;;;2.92;1.60;;;;;;;16.34;100.00;99701.16;7398906;19;20015;-66
2023/07/28 02:27:30;;;;;;;2.25;1.80;;;;;;;16.34;100.00;99701.16;7395996;19;20066;-66
2023/07/28 02:29:59;;;;;;;1.88;1.70;;;;;;;16.35;100.00;99702.00;7397974;19;20082;-65
2023/07/28 02:32:31;;;;;;;5.03;1.73;;;;;;;16.36;100.00;99706.34;7397417;19;20074;-65
2023/07/28 02:34:59;;;;;;;7.03;2.30;;;;;;;16.37;100.00;99703.63;7398153;19;20017;-65
2023/07/28 02:37:28;;;;;;;5.15;1.70;;;;;;;16.39;100.00;99706.16;7395694;19;20086;-65
2023/07/28 02:39:56;;;;;;;7.40;2.72;;;;;;;16.38;100.00;99707.97;7395449;19;20023;-65
2023/07/28 02:42:26;;;;;;;5.57;1.95;;;;;;;16.40;100.00;99703.44;7395631;19;20014;-65
2023/07/28 02:44:55;;;;;;;4.60;1.58;;;;;;;16.40;100.00;99703.44;7397182;19;20377;-66
2023/07/28 02:47:23;;;;;;;2.53;2.00;;;;;;;16.41;100.00;99705.09;7393323;19;20032;-65
2023/07/28 02:49:54;;;;;;;4.22;2.05;;;;;;;16.42;100.00;99704.16;7397338;19;20081;-66
2023/07/28 02:52:22;;;;;;;4.88;1.67;;;;;;;16.43;100.00;99705.03;7395809;19;20074;-66
2023/07/28 02:54:51;;;;;;;3.97;2.03;;;;;;;16.44;100.00;99698.78;7396763;19;20501;-65
2023/07/28 02:57:19;;;;;;;5.70;1.90;;;;;;;16.46;100.00;99702.19;7395328;19;20427;-65
2023/07/28 02:59:48;;;;;;;3.50;1.83;;;;;;;16.47;100.00;99697.72;7396785;19;20074;-64
2023/07/28 03:02:16;;;;;;;3.90;1.83;;;;;;;16.47;100.00;99697.72;7394843;19;20018;-65
2023/07/28 03:04:45;;;;;;;3.65;1.70;;;;;;;16.48;100.00;99694.13;7396753;19;20035;-64
2023/07/28 03:07:16;;;;;;;6.00;1.83;;;;;;;16.49;100.00;99698.50;7395382;19;20077;-65
2023/07/28 03:09:44;;;;;;;3.72;2.40;;;;;;;16.50;100.00;99697.56;7396534;19;20018;-64
2023/07/28 03:12:13;;;;;;;7.82;2.22;;;;;;;16.50;100.00;99692.25;7394206;19;20078;-65
2023/07/28 03:14:42;;;;;;;5.53;2.40;;;;;;;16.50;100.00;99693.09;7394309;19;20014;-65
2023/07/28 03:17:10;;;;;;;6.22;2.17;;;;;;;16.50;100.00;99698.38;7395069;19;20018;-64
2023/07/28 03:19:39;;;;;;;5.55;2.10;;;;;;;16.51;100.00;99701.91;7394797;19;20086;-65
2023/07/28 03:22:07;;;;;;;5.18;2.05;;;;;;;16.51;100.00;99704.56;7396010;19;20086;-66
2023/07/28 03:24:38;;;;;;;5.00;1.95;;;;;;;16.50;100.00;99703.69;7396137;19;20078;-65
2023/07/28 03:27:08;;;;;;;2.45;1.73;;;;;;;16.50;100.00;99703.69;7394721;19;20491;-66
2023/07/28 03:29:36;;;;;;;5.72;1.80;;;;;;;16.51;100.00;99707.19;7394474;19;20014;-66
2023/07/28 03:32:05;;;;;;;4.93;2.00;;;;;;;16.52;100.00;99711.56;7395844;19;20094;-66
2023/07/28 03:34:34;;;;;;;3.72;2.00;;;;;;;16.52;100.00;99711.56;7393966;19;20027;-65
2023/07/28 03:37:03;;;;;;;2.65;1.92;;;;;;;16.51;100.00;99701.91;7394358;19;20015;-65
2023/07/28 03:39:31;;;;;;;6.47;2.30;;;;;;;16.52;100.00;99704.44;7395306;19;20494;-65
2023/07/28 03:42:02;;;;;;;6.03;2.30;;;;;;;16.53;100.00;99702.63;7395613;19;20011;-65
2023/07/28 03:44:31;;;;;;;4.75;2.42;;;;;;;16.53;100.00;99707.94;7395580;19;20023;-66
2023/07/28 03:46:59;;;;;;;3.65;2.22;;;;;;;16.53;100.00;99715.88;7394427;19;20083;-66
2023/07/28 03:49:28;;;;;;;4.55;2.10;;;;;;;16.53;100.00;99714.09;7395285;19;20090;-66
2023/07/28 03:51:56;;;;;;;3.58;2.15;;;;;;;16.54;100.00;99709.63;7393271;19;20569;-65
2023/07/28 03:54:25;;;;;;;5.45;2.60;;;;;;;16.55;100.00;99714.00;7393787;19;20377;-66
2023/07/28 03:56:54;;;;;;;6.75;2.40;;;;;;;16.56;100.00;99710.41;7392916;19;20367;-66
2023/07/28 03:59:25;;;;;;;6.07;2.13;;;;;;;16.57;100.00;99718.25;7407827;19;20496;-66
2023/07/28 04:01:52;;;;;;;8.10;2.50;;;;;;;16.58;100.00;99711.13;7409648;19;20030;-65
2023/07/28 04:04:21;;;;;;;3.58;2.53;;;;;;;16.58;100.00;99716.44;7409335;19;20015;-65
2023/07/28 04:06:52;;;;;;;4.90;2.30;;;;;;;16.59;100.00;99719.00;7407909;19;20015;-65
2023/07/28 04:09:21;;;;;;;3.97;2.72;;;;;;;16.60;100.00;99722.50;7409474;19;20090;-65
2023/07/28 04:11:49;;;;;;;5.55;2.28;;;;;;;16.60;100.00;99719.84;7408853;19;20410;-66
2023/07/28 04:14:18;;;;;;;4.07;1.92;;;;;;;16.62;100.00;99739.16;7407759;19;20070;-65
2023/07/28 04:16:49;;;;;;;4.10;2.63;;;;;;;16.63;100.00;99738.22;7407194;19;20363;-65
2023/07/28 04:19:30;;;;;;;4.75;2.13;;;;;;;16.64;100.00;99739.03;7406785;19;20042;-65
2023/07/28 04:21:59;;;;;;;3.90;2.45;;;;;;;16.65;100.00;99738.94;7407988;19;20017;-65
2023/07/28 04:24:28;;;;;;;7.55;1.77;;;;;;;16.66;100.00;99729.22;7407881;19;20023;-65
2023/07/28 04:26:56;;;;;;;3.50;1.95;;;;;;;16.68;100.00;99737.88;7407088;19;20090;-65
2023/07/28 04:29:24;;;;;;;3.90;1.90;;;;;;;16.68;100.00;99733.47;7407531;19;20010;-65
2023/07/28 04:31:56;;;;;;;4.00;2.05;;;;;;;16.69;100.00;99732.50;7408748;19;20461;-65
2023/07/28 04:34:24;;;;;;;3.10;1.70;;;;;;;16.70;100.00;99742.16;7406697;19;20014;-65
2023/07/28 04:36:52;;;;;;;8.75;2.72;;;;;;;16.71;100.00;99741.19;7406794;19;20100;-65
2023/07/28 04:39:21;;;;;;;6.32;1.70;;;;;;;16.73;100.00;99741.97;7407704;19;20403;-65
2023/07/28 04:41:49;;;;;;;4.97;2.00;;;;;;;16.74;100.00;99738.38;7407453;19;20010;-65
2023/07/28 04:44:19;;;;;;;8.05;1.90;;;;;;;16.77;100.00;99745.28;7407574;19;20073;-67
2023/07/28 04:46:48;;;;;;;5.97;1.70;;;;;;;16.78;100.00;99741.66;7406329;19;20017;-66
2023/07/28 04:49:21;;;;;;;2.30;1.70;;;;;;;16.80;100.00;99742.41;7407620;19;20121;-66
2023/07/28 04:51:49;;;;;;;4.20;1.77;;;;;;;16.80;100.00;99739.78;7408942;19;20014;-67
2023/07/28 04:54:18;;;;;;;5.32;2.30;;;;;;;16.83;100.00;99738.72;7406313;19;20027;-67
2023/07/28 04:56:49;;;;;;;6.20;1.80;;;;;;;16.83;100.00;99736.91;7406204;19;20082;-67
2023/07/28 04:59:18;;;;;;;6.15;1.88;;;;;;;16.86;100.00;99741.19;7407933;19;20018;-68
2023/07/28 05:01:46;;;;;;;6.45;2.15;;;;;;;16.88;100.00;99739.28;7406558;19;20501;-67
2023/07/28 05:04:15;;;;;;;6.78;1.83;;;;;;;16.90;100.00;99742.69;7406823;19;20010;-67
2023/07/28 05:06:46;;;;;;;7.90;2.20;;;;;;;16.93;100.00;99740.72;7405790;19;20078;-67
2023/07/28 05:09:14;;;;;;;4.93;2.10;;;;;;;16.96;100.00;99739.69;7402852;19;20070;-67
2023/07/28 05:11:43;;;;;;;4.88;2.42;;;;;;;16.99;100.00;99738.63;7399706;19;20027;-67
2023/07/28 05:14:11;;;;;;;3.53;1.95;;;;;;;17.01;100.00;99736.72;7398398;19;20197;-68
2023/07/28 05:16:40;;;;;;;5.53;1.77;;;;;;;17.02;100.00;99739.28;7398169;19;20014;-67
2023/07/28 05:19:09;;;;;;;4.40;1.70;;;;;;;17.04;100.00;99742.66;7397944;19;20018;-68
2023/07/28 05:21:37;;;;;;;3.70;1.88;;;;;;;17.06;100.00;99743.44;7396710;19;20025;-68
2023/07/28 05:24:08;;;;;;;7.53;1.90;;;;;;;17.08;100.00;99744.16;7399341;19;20010;-67
2023/07/28 05:26:37;;;;;;;2.75;1.58;;;;;;;17.13;100.00;99754.47;7398278;19;20015;-67
2023/07/28 05:29:05;;;;;;;7.53;2.05;;;;;;;17.16;100.00;99753.41;7399612;19;20018;-67
2023/07/28 05:31:34;;;;;;;2.65;1.50;;;;;;;17.17;100.00;99750.66;7397044;19;20078;-67
2023/07/28 05:34:02;;;;;;;5.07;1.85;;;;;;;17.20;100.00;99760.22;7398535;19;20010;-67
2023/07/28 05:36:31;;;;;;;6.45;2.35;;;;;;;17.22;100.00;99763.63;7398160;19;20014;-67
2023/07/28 05:39:00;;;;;;;8.07;3.17;;;;;;;17.23;100.00;99766.16;7399037;19;20020;-67
2023/07/28 05:41:32;;;;;;;3.53;1.80;;;;;;;17.25;100.00;99761.63;7399155;19;20023;-67
2023/07/28 05:44:00;;;;;;;2.75;1.90;;;;;;;17.27;100.00;99766.81;7399477;19;20013;-66
2023/07/28 05:46:29;;;;;;;3.17;2.05;;;;;;;17.29;100.00;99772.88;7397662;19;20540;-67
2023/07/28 05:48:57;;;;;;;3.05;1.67;;;;;;;17.30;100.00;99779.03;7398736;19;20057;-67
2023/07/28 05:51:26;;;;;;;4.85;1.75;;;;;;;17.29;100.00;99770.25;7398294;19;20081;-67
2023/07/28 05:53:55;;;;;;;4.63;1.60;;;;;;;17.29;100.00;99780.84;7397576;19;20011;-67
2023/07/28 05:56:23;;;;;;;2.78;1.20;;;;;;;17.30;100.00;99771.94;7397060;19;20074;-67
2023/07/28 05:58:54;;;;;;;6.72;2.72;;;;;;;17.29;100.00;99772.88;7395919;19;20079;-67
2023/07/28 06:01:25;;;;;;;4.05;3.45;;;;;;;17.31;100.00;99772.78;7398514;19;20074;-67
2023/07/28 06:03:58;;;;;;;4.82;1.15;;;;;;;17.31;100.00;99770.13;7398644;19;20018;-66
2023/07/28 06:06:27;;;;;;;5.70;1.48;;;;;;;17.32;100.00;99787.75;7397173;19;20010;-68
2023/07/28 06:08:56;;;;;;;2.55;1.35;;;;;;;17.32;100.00;99783.28;7399303;19;20481;-68
2023/07/28 06:11:24;;;;;;;2.55;0.90;;;;;;;17.34;100.00;99792.00;7398503;19;20513;-67
2023/07/28 06:13:57;;;;;;;2.55;0.93;;;;;;;17.35;100.00;99791.03;7396779;19;20347;-67
2023/07/28 06:16:25;;;;;;;2.03;0.88;;;;;;;17.39;100.00;99794.34;7396663;19;20017;-67
2023/07/28 06:18:54;;;;;;;0.77;0.68;;;;;;;17.46;100.00;99790.31;7396934;19;20488;-68
2023/07/28 06:21:22;;;;;;;5.00;1.00;;;;;;;17.51;100.00;99790.03;7395683;19;20014;-67
2023/07/28 06:23:51;;;;;;;1.88;0.65;;;;;;;17.57;100.00;99781.69;7397557;19;20146;-68
2023/07/28 06:26:19;;;;;;;7.40;1.17;;;;;;;17.62;100.00;99803.44;7395368;19;20082;-68
2023/07/28 06:28:47;;;;;;;1.70;0.60;;;;;;;17.69;100.00;99796.78;7397107;19;20037;-66
2023/07/28 06:31:19;;;;;;;2.15;0.70;;;;;;;17.79;100.00;99814.72;7397109;19;20090;-68
2023/07/28 06:33:47;;;;;;;1.35;0.80;;;;;;;17.89;100.00;99807.84;7397399;19;20089;-68
2023/07/28 06:36:17;;;;;;;1.70;0.95;;;;;;;17.96;100.00;99821.56;7395080;19;20011;-66
2023/07/28 06:38:48;;;;;;;1.75;0.68;;;;;;;18.02;100.00;99821.16;7397171;19;20485;-67
2023/07/28 06:41:16;;;;;;;1.42;0.90;;;;;;;18.10;100.00;99828.59;7396846;19;20588;-68
2023/07/28 06:43:45;;;;;;;2.60;1.15;;;;;;;18.17;100.00;99819.28;7397451;19;20086;-66
2023/07/28 06:46:13;;;;;;;3.40;0.70;;;;;;;18.22;98.62;99836.59;7396665;19;20030;-68
2023/07/28 06:48:44;;;;;;;0.98;0.60;;;;;;;18.29;98.37;99846.81;7396555;19;20031;-68
2023/07/28 06:51:13;;;;;;;1.20;0.88;;;;;;;18.34;98.12;99850.81;7398051;19;20015;-67
2023/07/28 06:53:41;;;;;;;2.30;0.77;;;;;;;18.37;95.99;99855.06;7396502;19;20315;-68
2023/07/28 06:56:10;;;;;;;1.70;0.68;;;;;;;18.40;95.90;99845.09;7396163;19;20026;-68
2023/07/28 06:58:38;;;;;;;2.83;1.00;;;;;;;18.46;96.99;99841.16;7396106;19;20431;-67
2023/07/28 07:01:08;;;;;;;2.35;0.85;;;;;;;18.53;96.63;99841.59;7396148;19;20478;-67
2023/07/28 07:03:37;;;;;;;1.23;0.80;;;;;;;18.61;96.20;99857.84;7395911;19;20018;-68
2023/07/28 07:06:08;;;;;;;1.00;0.80;;;;;;;18.69;95.37;99863.47;7395839;19;20018;-67
2023/07/28 07:08:36;;;;;;;0.77;0.60;;;;;;;18.73;94.93;99864.97;7395721;19;20023;-66
2023/07/28 07:11:05;;;;;;;1.83;0.73;;;;;;;18.75;94.64;99854.22;7396008;19;20085;-68
2023/07/28 07:13:34;;;;;;;0.63;0.50;;;;;;;18.76;92.55;99858.56;7393894;19;20011;-69
2023/07/28 07:16:03;;;;;;;1.95;0.57;;;;;;;18.81;93.65;99859.09;7393504;19;20026;-65
2023/07/28 07:18:31;;;;;;;2.25;0.52;;;;;;;18.85;93.54;99857.91;7395905;19;20485;-67
2023/07/28 07:21:05;;;;;;;1.08;0.70;;;;;;;18.91;94.46;99854.03;7394171;19;20082;-66
2023/07/28 07:23:36;;;;;;;1.73;0.60;;;;;;;18.99;92.76;99851.69;7396081;19;20011;-66
2023/07/28 07:26:05;;;;;;;1.85;0.55;;;;;;;19.11;93.26;99862.38;7395363;19;20018;-67
2023/07/28 07:28:35;;;;;;;3.55;1.48;;;;;;;19.21;93.26;99850.13;7393646;19;20018;-67
2023/07/28 07:31:04;;;;;;;1.15;0.57;;;;;;;19.31;92.55;99864.47;7393794;19;20019;-66
2023/07/28 07:33:32;;;;;;;1.60;0.57;;;;;;;19.37;89.68;99845.41;7393655;19;20074;-66
2023/07/28 07:36:01;;;;;;;0.55;0.50;;;;;;;19.42;91.47;99866.31;7393910;19;20027;-66
2023/07/28 07:38:29;;;;;;;0.70;0.50;;;;;;;19.44;91.97;99866.25;7393037;19;20011;-66
2023/07/28 07:41:01;;;;;;;2.80;1.00;;;;;;;19.42;91.72;99868.16;7394716;19;20027;-67
2023/07/28 07:43:30;;;;;;;1.33;0.70;;;;;;;19.39;92.07;99868.38;7395188;19;20011;-67
2023/07/28 07:45:58;;;;;;;1.90;0.65;;;;;;;19.33;92.33;99872.31;7394855;19;20018;-66
2023/07/28 07:48:27;;;;;;;1.67;0.70;;;;;;;19.35;92.47;99875.72;7395178;19;20077;-65
2023/07/28 07:50:56;;;;;;;1.15;0.80;;;;;;;19.34;93.77;99882.00;7394373;19;20018;-67
2023/07/28 07:53:24;;;;;;;1.08;0.70;;;;;;;19.25;93.72;99891.50;7394296;19;20014;-66
2023/07/28 07:55:53;;;;;;;2.15;0.65;;;;;;;19.14;95.12;99894.06;7392276;19;20371;-66
2023/07/28 07:58:24;;;;;;;2.60;1.17;;;;;;;18.97;96.02;99890.81;7392596;19;20014;-66
2023/07/28 08:00:52;;;;;;;3.80;1.10;;;;;;;18.83;96.97;99906.81;7394299;19;20531;-66
2023/07/28 08:03:21;;;;;;;4.13;1.45;;;;;;;18.70;98.09;99897.06;7394369;19;20053;-66
2023/07/28 08:05:49;;;;;;;2.05;0.88;;;;;;;18.62;98.13;99907.34;7393919;19;20018;-67
2023/07/28 08:08:19;;;;;;;1.45;0.80;;;;;;;18.52;98.71;99893.84;7394126;19;20015;-66
2023/07/28 08:10:48;;;;;;;2.47;0.73;;;;;;;18.46;99.66;99893.44;7393849;19;20481;-67
2023/07/28 08:13:16;;;;;;;1.85;1.33;;;;;;;18.45;100.00;99897.03;7392581;19;20109;-66
2023/07/28 08:15:48;;;;;;;1.30;1.02;;;;;;;18.49;100.00;99901.22;7392418;19;20548;-66
2023/07/28 08:18:17;;;;;;;2.03;0.90;;;;;;;18.57;100.00;99906.81;7393595;19;20501;-66
2023/07/28 08:20:45;;;;;;;2.35;0.80;;;;;;;18.64;99.86;99908.13;7392452;19;20525;-67
2023/07/28 08:23:14;;;;;;;2.25;0.80;;;;;;;18.68;98.57;99906.94;7394327;19;20028;-67
2023/07/28 08:25:42;;;;;;;1.23;0.70;;;;;;;18.76;97.51;99902.91;7393790;19;20515;-67
2023/07/28 08:28:11;;;;;;;1.85;0.90;;;;;;;18.83;97.55;99906.81;7392160;19;20023;-67
2023/07/28 08:30:39;;;;;;;5.35;0.90;;;;;;;18.86;97.17;99914.59;7394109;19;20010;-67
2023/07/28 08:33:10;;;;;;;2.35;0.88;;;;;;;18.87;96.73;99911.00;7393649;19;20014;-66
2023/07/28 08:35:39;;;;;;;2.10;0.88;;;;;;;18.87;97.05;99918.97;7391627;19;20070;-66
2023/07/28 08:38:07;;;;;;;1.17;1.00;;;;;;;18.88;97.41;99913.53;7393337;19;20443;-66
2023/07/28 08:40:36;;;;;;;2.60;0.88;;;;;;;18.93;97.06;99917.69;7393611;19;20078;-67
2023/07/28 08:43:05;;;;;;;1.30;0.90;;;;;;;18.95;95.90;99911.31;7391852;19;20024;-66
2023/07/28 08:45:34;;;;;;;2.58;1.05;;;;;;;19.02;96.89;99917.91;7397504;19;20007;-66
2023/07/28 08:48:02;;;;;;;2.65;0.90;;;;;;;19.08;94.62;99937.03;7398087;19;20010;-66
2023/07/28 08:50:34;;;;;;;3.10;1.10;;;;;;;19.09;95.79;99928.94;7401035;19;20011;-67
2023/07/28 08:53:02;;;;;;;1.17;0.77;;;;;;;19.11;95.72;99931.50;7400513;19;20355;-67
2023/07/28 08:55:31;;;;;;;2.20;1.17;;;;;;;19.10;95.29;99929.81;7397748;19;20019;-66
2023/07/28 08:58:16;;;;;;;2.47;0.77;;;;;;;19.07;94.84;99928.22;7398570;19;20536;-67
2023/07/28 09:00:48;;;;;;;1.30;0.90;;;;;;;19.09;95.91;99933.44;7396849;19;20010;-68
2023/07/28 09:03:17;;;;;;;3.83;1.40;;;;;;;19.12;95.49;99930.53;7398331;19;20369;-66
2023/07/28 09:05:49;;;;;;;1.90;0.98;;;;;;;19.18;95.75;99938.09;7400807;19;20089;-66
2023/07/28 09:08:19;;;;;;;3.65;1.10;;;;;;;19.28;95.76;99944.44;7398276;19;20057;-66
2023/07/28 09:10:50;;;;;;;3.22;1.00;;;;;;;19.39;94.50;99932.22;7400074;19;20494;-66
2023/07/28 09:13:42;;;;;;;2.65;1.05;;;;;;;19.45;93.42;99929.09;7399828;19;20014;-66
2023/07/28 09:16:19;;;;;;;1.25;0.90;;;;;;;19.55;93.09;99943.47;7398038;19;20512;-66
2023/07/28 09:18:48;;;;;;;2.95;1.00;;;;;;;19.60;92.53;99932.47;7400674;19;20041;-66
2023/07/28 09:21:33;;;;;;;1.00;0.90;;;;;;;19.66;88.90;99951.50;7398097;19;20514;-69
2023/07/28 09:24:03;;;;;;;1.45;1.30;;;;;;;19.71;89.89;99940.50;7400232;19;20019;-66
2023/07/28 09:26:39;;;;;;;1.70;1.33;;;;;;;19.74;89.93;99942.09;7398182;19;20015;-67
2023/07/28 09:29:16;;;;;;;2.38;1.50;;;;;;;19.83;89.29;99952.13;7399656;19;20015;-66
2023/07/28 09:31:46;;;;;;;2.42;1.33;;;;;;;19.88;89.30;99957.94;7399895;19;20024;-68
2023/07/28 09:34:15;;;;;;;1.67;1.30;;;;;;;19.94;89.63;99953.97;7399443;19;20066;-66
2023/07/28 09:36:47;;;;;;;3.03;1.10;;;;;;;19.97;88.73;99954.59;7396887;19;20021;-65
2023/07/28 09:39:16;;;;;;;1.15;1.05;;;;;;;20.02;88.28;99949.78;7396925;19;20011;-66
2023/07/28 09:41:47;;;;;;;1.40;1.30;;;;;;;20.07;87.92;99961.91;7398388;19;20074;-67
2023/07/28 09:44:16;;;;;;;1.40;1.30;;;;;;;20.13;88.33;99962.31;7398863;19;20015;-69
2023/07/28 09:46:53;;;;;;;2.67;1.27;;;;;;;20.19;85.40;99966.31;7396837;19;20074;-68
2023/07/28 09:49:25;;;;;;;1.60;1.13;;;;;;;20.23;86.49;99957.13;7399312;19;20079;-67
2023/07/28 09:51:58;;;;;;;2.63;1.20;;;;;;;20.27;86.53;99966.63;7397074;19;20098;-67
2023/07/28 09:54:29;;;;;;;3.20;1.40;;;;;;;20.27;85.47;99963.06;7398832;19;20027;-68
2023/07/28 09:56:59;;;;;;;1.38;1.27;;;;;;;20.30;84.64;99953.06;7395233;19;20014;-69
2023/07/28 09:59:34;;;;;;;3.10;1.23;;;;;;;20.33;85.20;99974.16;7398273;19;20011;-68
2023/07/28 10:02:03;;;;;;;2.08;1.80;;;;;;;20.32;83.27;99974.25;7398012;19;20370;-68
2023/07/28 10:04:32;;;;;;;1.60;1.50;;;;;;;20.33;84.29;99978.59;7398177;19;20342;-69
2023/07/28 10:07:04;;;;;;;2.85;1.35;;;;;;;20.34;81.84;99970.50;7396403;19;20022;-70
2023/07/28 10:09:34;;;;;;;1.38;1.23;;;;;;;20.42;83.06;99969.06;7399184;19;20015;-71
2023/07/28 10:12:03;;;;;;;1.70;1.15;;;;;;;20.47;82.64;99965.13;7395951;19;20006;-67
2023/07/28 10:14:34;;;;;;;1.60;1.50;;;;;;;20.55;83.09;99969.00;7398371;19;20363;-66
2023/07/28 10:17:04;;;;;;;1.50;1.30;;;;;;;20.60;82.39;99978.34;7395379;19;20010;-68
2023/07/28 10:19:36;;;;;;;1.35;1.17;;;;;;;20.65;82.89;99968.19;7397745;19;20016;-68
2023/07/28 10:22:10;;;;;;;3.00;1.75;;;;;;;20.72;82.26;99957.09;7395632;19;20021;-69
2023/07/28 10:24:55;;;;;;;1.98;1.60;;;;;;;20.73;79.68;99980.13;7398442;19;20028;-67
2023/07/28 10:27:34;;;;;;;1.98;1.58;;;;;;;20.76;80.47;99970.06;7395865;19;20023;-66
2023/07/28 10:30:05;;;;;;;1.98;1.27;;;;;;;20.77;82.68;99978.91;7397650;19;20484;-67
2023/07/28 10:32:40;;;;;;;2.83;1.33;;;;;;;20.74;82.80;99981.78;7398898;19;20025;-69
2023/07/28 10:35:10;;;;;;;3.25;1.30;;;;;;;20.73;83.43;99980.94;7397606;19;20074;-69
2023/07/28 10:37:46;;;;;;;1.63;1.40;;;;;;;20.78;82.78;99970.78;7395205;19;20557;-68
2023/07/28 10:40:30;;;;;;;2.33;1.60;;;;;;;20.81;79.92;99967.03;7397518;19;20081;-68
2023/07/28 10:42:59;;;;;;;1.70;1.60;;;;;;;20.87;81.62;99976.38;7397298;19;20022;-68
2023/07/28 10:45:29;;;;;;;3.45;1.80;;;;;;;20.88;81.53;99970.94;7397249;19;20010;-69
2023/07/28 10:47:59;;;;;;;2.47;1.55;;;;;;;20.91;80.56;99962.69;7394993;19;20025;-68
2023/07/28 10:50:30;;;;;;;1.77;1.67;;;;;;;20.99;81.69;99970.06;7397227;19;20393;-67
2023/07/28 10:53:02;;;;;;;1.75;1.63;;;;;;;21.12;79.75;99980.66;7397056;19;20077;-69
2023/07/28 10:55:30;;;;;;;1.70;1.60;;;;;;;21.28;77.92;99978.47;7395392;19;20022;-69
2023/07/28 10:58:00;;;;;;;3.53;1.80;;;;;;;21.43;77.88;99968.41;7395034;19;20049;-69
2023/07/28 11:00:28;;;;;;;3.53;2.13;;;;;;;21.56;76.40;99976.31;7396048;19;20412;-71
2023/07/28 11:02:57;;;;;;;1.90;1.70;;;;;;;21.68;76.29;99961.13;7396029;19;20078;-69
2023/07/28 11:05:27;;;;;;;2.90;1.83;;;;;;;21.78;76.00;99972.75;7396280;19;20018;-69
2023/07/28 11:07:58;;;;;;;2.40;1.83;;;;;;;21.86;75.06;99974.78;7392210;19;20086;-68
2023/07/28 11:10:32;;;;;;;2.10;1.90;;;;;;;21.96;72.80;99970.41;7397619;19;20070;-68
2023/07/28 11:13:03;;;;;;;2.00;1.90;;;;;;;22.08;73.20;99973.03;7395900;19;20108;-68
2023/07/28 11:15:32;;;;;;;1.77;1.60;;;;;;;22.16;73.62;99975.09;7395910;19;20065;-70
2023/07/28 11:18:00;;;;;;;2.33;2.00;;;;;;;22.21;73.56;99973.72;7394215;19;20062;-68
2023/07/28 11:20:30;;;;;;;3.67;1.90;;;;;;;22.29;70.68;99973.94;7393442;19;20367;-68
2023/07/28 11:23:01;;;;;;;1.80;1.70;;;;;;;22.43;70.32;99963.91;7395779;19;20361;-69
2023/07/28 11:25:34;;;;;;;2.90;1.70;;;;;;;22.57;69.03;99968.97;7394027;19;20465;-68
2023/07/28 11:28:05;;;;;;;2.08;1.90;;;;;;;22.74;69.98;99980.06;7393893;19;20011;-69
2023/07/28 11:30:35;;;;;;;2.70;1.70;;;;;;;22.89;70.35;99962.69;7395805;19;20078;-68
2023/07/28 11:33:05;;;;;;;2.00;1.70;;;;;;;23.05;70.41;99964.91;7397640;19;20046;-70
2023/07/28 11:35:34;;;;;;;1.90;1.80;;;;;;;23.16;69.52;99957.78;7396291;19;20014;-67
2023/07/28 11:38:02;;;;;;;1.58;1.48;;;;;;;23.16;68.90;99963.97;7393240;19;20010;-67
2023/07/28 11:40:34;;;;;;;4.72;1.73;;;;;;;23.11;68.06;99976.88;7394890;19;20082;-65
2023/07/28 11:43:03;;;;;;;3.55;2.03;;;;;;;22.87;72.36;99986.03;7394465;19;20461;-66